createdAt,value
2022-11-07T00:00:50.079Z,0.00
2022-11-07T00:01:47.298Z,0.00
2022-11-07T00:02:47.314Z,0.00
2022-11-07T00:03:47.251Z,0.00
2022-11-07T00:04:47.232Z,0.00
2022-11-07T00:05:47.390Z,0.00
2022-11-07T00:06:47.189Z,0.00
2022-11-07T00:07:47.187Z,0.00
2022-11-07T00:08:47.182Z,0.00
2022-11-07T00:09:47.161Z,0.00
2022-11-07T00:10:47.212Z,0.00
2022-11-07T00:11:47.152Z,0.00
2022-11-07T00:12:47.147Z,0.00
2022-11-07T00:13:47.129Z,0.00
2022-11-07T00:14:47.131Z,0.00
2022-11-07T00:15:47.120Z,0.00
2022-11-07T00:16:47.093Z,0.00
2022-11-07T00:17:47.111Z,0.00
2022-11-07T00:18:47.074Z,0.00
2022-11-07T00:19:47.050Z,0.00
2022-11-07T00:20:47.056Z,0.00
2022-11-07T00:21:47.071Z,0.00
2022-11-07T00:22:47.012Z,0.00
2022-11-07T00:23:47.012Z,0.00
2022-11-07T00:24:47.007Z,0.00
2022-11-07T00:25:47.006Z,0.00
2022-11-07T00:26:47.081Z,0.00
2022-11-07T00:27:46.986Z,0.00
2022-11-07T00:28:46.948Z,0.00
2022-11-07T00:29:46.943Z,0.00
2022-11-07T00:30:46.928Z,0.00
2022-11-07T00:31:46.935Z,0.00
2022-11-07T00:32:46.968Z,0.00
2022-11-07T00:33:46.918Z,0.00
2022-11-07T00:34:46.906Z,0.00
2022-11-07T00:35:46.857Z,0.00
2022-11-07T00:36:46.877Z,0.00
2022-11-07T00:37:46.887Z,0.00
2022-11-07T00:38:46.825Z,0.00
2022-11-07T00:39:46.859Z,0.00
2022-11-07T00:40:46.808Z,0.00
2022-11-07T00:41:46.809Z,0.00
2022-11-07T00:42:46.807Z,0.00
2022-11-07T00:43:46.768Z,0.00
2022-11-07T00:44:46.806Z,0.00
2022-11-07T00:45:46.790Z,0.00
2022-11-07T00:46:46.790Z,0.00
2022-11-07T00:47:46.752Z,0.00
2022-11-07T00:48:46.732Z,0.00
2022-11-07T00:49:46.716Z,0.00
2022-11-07T00:50:46.689Z,0.00
2022-11-07T00:51:46.719Z,0.00
2022-11-07T00:52:46.702Z,0.00
2022-11-07T00:53:46.667Z,0.00
2022-11-07T00:54:46.663Z,0.00
2022-11-07T00:55:46.632Z,0.00
2022-11-07T00:56:46.662Z,0.00
2022-11-07T00:57:46.623Z,0.00
2022-11-07T00:58:46.634Z,0.00
2022-11-07T00:59:46.613Z,0.00
2022-11-07T01:00:46.571Z,0.00
2022-11-07T01:01:46.666Z,0.00
2022-11-07T01:02:46.815Z,0.00
2022-11-07T01:03:46.566Z,0.00
2022-11-07T01:04:46.551Z,0.00
2022-11-07T01:05:46.553Z,0.00
2022-11-07T01:06:46.538Z,0.00
2022-11-07T01:07:46.515Z,0.00
2022-11-07T01:08:46.529Z,0.00
2022-11-07T01:09:46.473Z,0.00
2022-11-07T01:10:46.480Z,0.00
2022-11-07T01:11:46.473Z,0.00
2022-11-07T01:12:46.435Z,0.00
2022-11-07T01:13:46.466Z,0.00
2022-11-07T01:14:46.489Z,0.00
2022-11-07T01:15:46.421Z,0.00
2022-11-07T01:16:46.417Z,0.00
2022-11-07T01:17:46.427Z,0.00
2022-11-07T01:18:46.375Z,0.00
2022-11-07T01:19:46.376Z,0.00
2022-11-07T01:20:46.358Z,0.00
2022-11-07T01:21:46.355Z,0.00
2022-11-07T01:22:46.360Z,0.00
2022-11-07T01:23:46.328Z,0.00
2022-11-07T01:24:46.318Z,0.00
2022-11-07T01:25:46.298Z,0.00
2022-11-07T01:26:46.302Z,0.00
2022-11-07T01:27:46.257Z,0.00
2022-11-07T01:28:46.308Z,0.00
2022-11-07T01:29:46.268Z,0.00
2022-11-07T01:30:46.239Z,0.00
2022-11-07T01:31:46.215Z,0.00
2022-11-07T01:32:46.212Z,0.00
2022-11-07T01:33:46.199Z,0.00
2022-11-07T01:34:46.252Z,0.00
2022-11-07T01:35:46.169Z,0.00
2022-11-07T01:36:46.172Z,0.00
2022-11-07T01:37:46.164Z,0.00
2022-11-07T01:38:46.148Z,0.00
2022-11-07T01:39:46.184Z,0.00
2022-11-07T01:40:46.112Z,0.00
2022-11-07T01:41:46.100Z,0.00
2022-11-07T01:42:46.104Z,0.00
2022-11-07T01:43:46.103Z,0.00
2022-11-07T01:44:46.121Z,0.00
2022-11-07T01:45:46.055Z,0.00
2022-11-07T01:46:46.042Z,0.00
2022-11-07T01:47:46.031Z,0.00
2022-11-07T01:48:46.027Z,0.00
2022-11-07T01:49:46.047Z,0.00
2022-11-07T01:50:46.013Z,0.00
2022-11-07T01:51:45.996Z,0.00
2022-11-07T01:52:45.988Z,0.00
2022-11-07T01:53:45.977Z,0.00
2022-11-07T01:54:45.968Z,0.00
2022-11-07T01:55:45.967Z,0.00
2022-11-07T01:56:45.934Z,0.00
2022-11-07T01:57:45.924Z,0.00
2022-11-07T01:58:45.905Z,0.00
2022-11-07T01:59:45.916Z,0.00
2022-11-07T02:00:45.875Z,0.00
2022-11-07T02:01:46.010Z,0.00
2022-11-07T02:02:45.962Z,0.00
2022-11-07T02:03:45.890Z,0.00
2022-11-07T02:04:45.846Z,0.00
2022-11-07T02:05:45.840Z,0.00
2022-11-07T02:06:45.826Z,0.00
2022-11-07T02:07:45.850Z,0.00
2022-11-07T02:08:45.870Z,0.00
2022-11-07T02:09:45.840Z,0.00
2022-11-07T02:10:45.777Z,0.00
2022-11-07T02:11:45.772Z,0.00
2022-11-07T02:12:45.749Z,0.00
2022-11-07T02:13:45.752Z,0.00
2022-11-07T02:14:45.761Z,0.00
2022-11-07T02:15:45.740Z,0.00
2022-11-07T02:16:45.702Z,0.00
2022-11-07T02:17:45.694Z,0.00
2022-11-07T02:18:45.712Z,0.00
2022-11-07T02:19:45.665Z,0.00
2022-11-07T02:20:45.683Z,0.00
2022-11-07T02:21:45.630Z,0.00
2022-11-07T02:22:45.714Z,0.00
2022-11-07T02:23:45.640Z,0.00
2022-11-07T02:24:45.602Z,0.00
2022-11-07T02:25:45.642Z,0.00
2022-11-07T02:26:45.586Z,0.00
2022-11-07T02:27:45.598Z,0.00
2022-11-07T02:28:45.574Z,0.00
2022-11-07T02:29:45.539Z,0.00
2022-11-07T02:30:45.550Z,0.00
2022-11-07T02:31:45.585Z,0.00
2022-11-07T02:32:45.515Z,0.00
2022-11-07T02:33:45.492Z,0.00
2022-11-07T02:34:45.546Z,0.00
2022-11-07T02:35:45.480Z,0.00
2022-11-07T02:36:45.486Z,0.00
2022-11-07T02:37:45.483Z,0.00
2022-11-07T02:38:45.476Z,0.00
2022-11-07T02:39:45.424Z,0.00
2022-11-07T02:40:45.443Z,0.00
2022-11-07T02:41:45.451Z,0.00
2022-11-07T02:42:45.408Z,0.00
2022-11-07T02:43:45.404Z,0.00
2022-11-07T02:44:45.373Z,0.00
2022-11-07T02:45:45.448Z,0.00
2022-11-07T02:46:45.345Z,0.00
2022-11-07T02:47:45.335Z,0.00
2022-11-07T02:48:45.350Z,0.00
2022-11-07T02:49:45.336Z,0.00
2022-11-07T02:50:45.306Z,0.00
2022-11-07T02:51:45.346Z,0.00
2022-11-07T02:52:45.291Z,0.00
2022-11-07T02:53:45.315Z,0.00
2022-11-07T02:54:45.281Z,0.00
2022-11-07T02:55:45.253Z,0.00
2022-11-07T02:56:45.257Z,0.00
2022-11-07T02:57:45.229Z,0.00
2022-11-07T02:58:45.252Z,0.00
2022-11-07T02:59:45.218Z,0.00
2022-11-07T03:00:45.192Z,0.00
2022-11-07T03:01:45.319Z,0.00
2022-11-07T03:02:45.339Z,0.00
2022-11-07T03:03:45.200Z,0.00
2022-11-07T03:04:49.006Z,0.00
2022-11-07T03:05:45.155Z,0.00
2022-11-07T03:06:45.137Z,0.00
2022-11-07T03:07:45.126Z,0.00
2022-11-07T03:08:45.121Z,0.00
2022-11-07T03:09:45.124Z,0.00
2022-11-07T03:10:45.073Z,0.00
2022-11-07T03:11:45.112Z,0.00
2022-11-07T03:12:45.056Z,0.00
2022-11-07T03:13:45.042Z,0.00
2022-11-07T03:14:45.152Z,0.00
2022-11-07T03:15:45.027Z,0.00
2022-11-07T03:16:45.015Z,0.00
2022-11-07T03:17:45.006Z,0.00
2022-11-07T03:18:44.992Z,0.00
2022-11-07T03:19:45.013Z,0.00
2022-11-07T03:20:44.995Z,0.00
2022-11-07T03:21:44.998Z,0.00
2022-11-07T03:22:44.936Z,0.00
2022-11-07T03:23:44.924Z,0.00
2022-11-07T03:24:44.919Z,0.00
2022-11-07T03:25:44.925Z,0.00
2022-11-07T03:26:44.896Z,0.00
2022-11-07T03:27:44.903Z,0.00
2022-11-07T03:28:44.863Z,0.00
2022-11-07T03:29:44.888Z,0.00
2022-11-07T03:30:44.909Z,0.00
2022-11-07T03:31:44.910Z,0.00
2022-11-07T03:32:44.824Z,0.00
2022-11-07T03:33:44.841Z,0.00
2022-11-07T03:34:44.797Z,0.00
2022-11-07T03:35:44.817Z,0.00
2022-11-07T03:36:44.778Z,0.00
2022-11-07T03:37:44.758Z,0.00
2022-11-07T03:38:44.818Z,0.00
2022-11-07T03:39:44.729Z,0.00
2022-11-07T03:40:44.738Z,0.00
2022-11-07T03:41:44.739Z,0.00
2022-11-07T03:42:44.715Z,0.00
2022-11-07T03:43:44.713Z,0.00
2022-11-07T03:44:44.709Z,0.00
2022-11-07T03:45:44.671Z,0.00
2022-11-07T03:46:44.660Z,0.00
2022-11-07T03:47:44.684Z,0.00
2022-11-07T03:48:44.632Z,0.00
2022-11-07T03:49:44.655Z,0.00
2022-11-07T03:50:44.645Z,0.00
2022-11-07T03:51:44.617Z,0.00
2022-11-07T03:52:44.620Z,0.00
2022-11-07T03:53:44.572Z,0.00
2022-11-07T03:54:44.573Z,0.00
2022-11-07T03:55:44.556Z,0.00
2022-11-07T03:56:44.580Z,0.00
2022-11-07T03:57:44.537Z,0.00
2022-11-07T03:58:44.512Z,0.00
2022-11-07T03:59:44.542Z,0.00
2022-11-07T04:00:44.493Z,0.00
2022-11-07T04:01:44.690Z,0.00
2022-11-07T04:02:44.597Z,0.00
2022-11-07T04:03:44.460Z,0.00
2022-11-07T04:04:44.458Z,0.00
2022-11-07T04:05:44.488Z,0.00
2022-11-07T04:06:44.427Z,0.00
2022-11-07T04:07:44.448Z,0.00
2022-11-07T04:08:44.416Z,0.00
2022-11-07T04:09:44.406Z,0.00
2022-11-07T04:10:44.415Z,0.00
2022-11-07T04:11:44.393Z,0.00
2022-11-07T04:12:44.358Z,0.00
2022-11-07T04:13:44.337Z,0.00
2022-11-07T04:14:44.359Z,0.00
2022-11-07T04:15:44.356Z,0.00
2022-11-07T04:16:44.350Z,0.00
2022-11-07T04:17:44.310Z,0.00
2022-11-07T04:18:44.278Z,0.00
2022-11-07T04:19:44.301Z,0.00
2022-11-07T04:20:44.308Z,0.00
2022-11-07T04:21:44.312Z,0.00
2022-11-07T04:22:44.273Z,0.00
2022-11-07T04:23:44.246Z,0.00
2022-11-07T04:24:45.928Z,0.00
2022-11-07T04:25:44.253Z,0.00
2022-11-07T04:26:44.220Z,0.00
2022-11-07T04:27:44.207Z,0.00
2022-11-07T04:28:44.204Z,0.00
2022-11-07T04:29:44.163Z,0.00
2022-11-07T04:30:44.150Z,0.00
2022-11-07T04:31:44.150Z,0.00
2022-11-07T04:32:44.179Z,0.00
2022-11-07T04:33:44.131Z,0.00
2022-11-07T04:34:44.124Z,0.00
2022-11-07T04:35:44.091Z,0.00
2022-11-07T04:36:44.142Z,0.00
2022-11-07T04:37:44.082Z,0.00
2022-11-07T04:38:44.076Z,0.00
2022-11-07T04:39:44.072Z,0.00
2022-11-07T04:40:44.047Z,0.00
2022-11-07T04:41:44.024Z,0.00
2022-11-07T04:42:44.053Z,0.00
2022-11-07T04:43:44.009Z,0.00
2022-11-07T04:44:44.048Z,0.00
2022-11-07T04:45:43.974Z,0.00
2022-11-07T04:46:44.006Z,0.00
2022-11-07T04:47:43.966Z,0.00
2022-11-07T04:48:43.940Z,0.00
2022-11-07T04:49:43.963Z,0.00
2022-11-07T04:50:43.939Z,0.00
2022-11-07T04:51:43.938Z,0.00
2022-11-07T04:52:43.923Z,0.00
2022-11-07T04:53:43.944Z,0.00
2022-11-07T04:54:43.908Z,0.00
2022-11-07T04:55:43.867Z,0.00
2022-11-07T04:56:43.857Z,0.00
2022-11-07T04:57:43.865Z,0.00
2022-11-07T04:58:43.827Z,0.00
2022-11-07T04:59:43.830Z,0.00
2022-11-07T05:00:43.828Z,0.00
2022-11-07T05:01:43.847Z,0.00
2022-11-07T05:02:43.864Z,0.00
2022-11-07T05:03:43.832Z,0.00
2022-11-07T05:04:43.772Z,0.00
2022-11-07T05:05:43.772Z,0.00
2022-11-07T05:06:43.729Z,0.00
2022-11-07T05:07:43.749Z,0.00
2022-11-07T05:08:43.742Z,0.00
2022-11-07T05:09:43.721Z,0.00
2022-11-07T05:10:43.688Z,0.00
2022-11-07T05:11:43.708Z,0.00
2022-11-07T05:12:43.658Z,0.00
2022-11-07T05:13:43.682Z,0.00
2022-11-07T05:14:43.630Z,0.00
2022-11-07T05:15:43.641Z,0.00
2022-11-07T05:16:43.621Z,0.00
2022-11-07T05:17:43.611Z,0.00
2022-11-07T05:18:43.604Z,0.00
2022-11-07T05:19:43.612Z,0.00
2022-11-07T05:20:43.572Z,0.00
2022-11-07T05:21:43.583Z,0.00
2022-11-07T05:22:43.556Z,0.00
2022-11-07T05:23:43.567Z,0.00
2022-11-07T05:24:43.527Z,0.00
2022-11-07T05:25:43.507Z,0.00
2022-11-07T05:26:43.523Z,0.00
2022-11-07T05:27:43.517Z,0.00
2022-11-07T05:28:43.492Z,0.00
2022-11-07T05:29:43.497Z,0.00
2022-11-07T05:30:43.478Z,0.00
2022-11-07T05:31:43.464Z,0.00
2022-11-07T05:32:43.458Z,0.00
2022-11-07T05:33:43.441Z,0.00
2022-11-07T05:34:43.428Z,0.00
2022-11-07T05:35:43.416Z,0.00
2022-11-07T05:36:43.405Z,0.00
2022-11-07T05:37:43.381Z,0.00
2022-11-07T05:38:43.417Z,0.00
2022-11-07T05:39:43.357Z,0.00
2022-11-07T05:40:43.348Z,4.00
2022-11-07T05:41:43.307Z,4.00
2022-11-07T05:42:43.306Z,0.00
2022-11-07T05:43:43.317Z,0.00
2022-11-07T05:44:43.352Z,4.00
2022-11-07T05:45:43.278Z,4.00
2022-11-07T05:46:43.283Z,4.00
2022-11-07T05:47:43.271Z,4.00
2022-11-07T05:48:43.273Z,8.00
2022-11-07T05:49:43.252Z,8.00
2022-11-07T05:50:43.209Z,8.00
2022-11-07T05:51:43.211Z,8.00
2022-11-07T05:52:43.235Z,12.00
2022-11-07T05:53:43.200Z,16.00
2022-11-07T05:54:43.225Z,16.00
2022-11-07T05:55:43.161Z,20.00
2022-11-07T05:56:43.143Z,24.00
2022-11-07T05:57:43.145Z,28.00
2022-11-07T05:58:43.155Z,32.00
2022-11-07T05:59:43.181Z,32.00
2022-11-07T06:00:43.127Z,36.00
2022-11-07T06:01:44.801Z,48.00
2022-11-07T06:02:43.220Z,56.00
2022-11-07T06:03:43.111Z,64.00
2022-11-07T06:04:43.065Z,76.00
2022-11-07T06:05:43.065Z,92.00
2022-11-07T06:06:43.023Z,104.00
2022-11-07T06:07:43.023Z,120.00
2022-11-07T06:08:43.122Z,140.00
2022-11-07T06:09:42.994Z,160.00
2022-11-07T06:10:42.985Z,188.00
2022-11-07T06:11:42.984Z,212.00
2022-11-07T06:12:42.966Z,232.00
2022-11-07T06:13:42.957Z,256.00
2022-11-07T06:14:43.006Z,276.00
2022-11-07T06:15:42.945Z,292.00
2022-11-07T06:16:42.920Z,316.00
2022-11-07T06:17:42.897Z,308.00
2022-11-07T06:18:42.904Z,312.00
2022-11-07T06:19:42.886Z,324.00
2022-11-07T06:20:42.925Z,348.00
2022-11-07T06:21:42.905Z,424.00
2022-11-07T06:22:42.836Z,492.00
2022-11-07T06:23:42.842Z,536.00
2022-11-07T06:24:42.808Z,580.00
2022-11-07T06:25:42.835Z,644.00
2022-11-07T06:26:42.872Z,652.00
2022-11-07T06:27:42.800Z,672.00
2022-11-07T06:28:42.778Z,720.00
2022-11-07T06:29:42.772Z,784.00
2022-11-07T06:30:42.772Z,872.00
2022-11-07T06:31:42.779Z,920.00
2022-11-07T06:32:42.772Z,980.00
2022-11-07T06:33:42.743Z,1080.00
2022-11-07T06:34:42.743Z,1112.00
2022-11-07T06:35:42.680Z,1084.00
2022-11-07T06:36:42.670Z,968.00
2022-11-07T06:37:42.670Z,888.00
2022-11-07T06:38:42.673Z,864.00
2022-11-07T06:39:42.893Z,888.00
2022-11-07T06:40:42.800Z,892.00
2022-11-07T06:41:42.655Z,920.00
2022-11-07T06:42:42.619Z,996.00
2022-11-07T06:43:42.634Z,1024.00
2022-11-07T06:44:42.585Z,992.00
2022-11-07T06:45:42.589Z,944.00
2022-11-07T06:46:42.596Z,912.00
2022-11-07T06:47:42.543Z,904.00
2022-11-07T06:48:42.533Z,896.00
2022-11-07T06:49:42.567Z,920.00
2022-11-07T06:50:42.546Z,932.00
2022-11-07T06:51:46.885Z,904.00
2022-11-07T06:52:43.521Z,872.00
2022-11-07T06:53:42.505Z,848.00
2022-11-07T06:54:42.508Z,844.00
2022-11-07T06:55:42.464Z,864.00
2022-11-07T06:56:42.538Z,888.00
2022-11-07T06:57:42.708Z,928.00
2022-11-07T06:58:42.449Z,988.00
2022-11-07T06:59:43.277Z,1128.00
2022-11-07T07:00:42.466Z,1232.00
2022-11-07T07:01:42.604Z,1216.00
2022-11-07T07:02:57.947Z,1156.00
2022-11-07T07:03:43.380Z,1148.00
2022-11-07T07:04:42.401Z,1168.00
2022-11-07T07:05:42.349Z,1264.00
2022-11-07T07:06:42.342Z,1340.00
2022-11-07T07:07:42.308Z,1432.00
2022-11-07T07:08:42.342Z,1492.00
2022-11-07T07:09:42.320Z,1528.00
2022-11-07T07:10:42.343Z,1608.00
2022-11-07T07:11:42.285Z,1692.00
2022-11-07T07:12:42.273Z,1708.00
2022-11-07T07:13:42.304Z,1728.00
2022-11-07T07:14:42.230Z,1760.00
2022-11-07T07:15:50.872Z,1808.00
2022-11-07T07:16:43.233Z,1880.00
2022-11-07T07:17:42.200Z,1940.00
2022-11-07T07:18:42.225Z,2024.00
2022-11-07T07:19:42.181Z,2232.00
2022-11-07T07:20:42.205Z,2308.00
2022-11-07T07:21:42.194Z,2248.00
2022-11-07T07:22:43.162Z,2276.00
2022-11-07T07:23:42.145Z,2272.00
2022-11-07T07:24:42.120Z,2244.00
2022-11-07T07:25:42.127Z,2232.00
2022-11-07T07:26:42.331Z,2268.00
2022-11-07T07:27:42.109Z,2316.00
2022-11-07T07:28:42.077Z,2364.00
2022-11-07T07:29:42.095Z,2440.00
2022-11-07T07:30:45.865Z,2516.00
2022-11-07T07:31:43.075Z,2664.00
2022-11-07T07:32:42.039Z,2716.00
2022-11-07T07:33:42.019Z,2668.00
2022-11-07T07:34:42.086Z,2660.00
2022-11-07T07:35:42.030Z,2632.00
2022-11-07T07:36:41.989Z,2696.00
2022-11-07T07:37:42.016Z,2724.00
2022-11-07T07:38:41.957Z,2764.00
2022-11-07T07:39:42.188Z,2824.00
2022-11-07T07:40:41.939Z,2920.00
2022-11-07T07:41:41.951Z,3120.00
2022-11-07T07:42:42.040Z,3296.00
2022-11-07T07:43:41.930Z,3456.00
2022-11-07T07:44:41.888Z,3708.00
2022-11-07T07:45:42.509Z,3968.00
2022-11-07T07:46:41.880Z,4184.00
2022-11-07T07:47:41.901Z,4320.00
2022-11-07T07:48:41.838Z,4420.00
2022-11-07T07:49:41.834Z,4448.00
2022-11-07T07:50:41.890Z,4548.00
2022-11-07T07:51:41.846Z,4604.00
2022-11-07T07:52:41.839Z,4572.00
2022-11-07T07:53:41.798Z,4644.00
2022-11-07T07:54:41.891Z,4776.00
2022-11-07T07:55:42.920Z,4772.00
2022-11-07T07:56:42.020Z,4528.00
2022-11-07T07:57:41.990Z,4476.00
2022-11-07T07:58:41.770Z,4572.00
2022-11-07T07:59:41.720Z,4636.00
2022-11-07T08:00:41.757Z,4644.00
2022-11-07T08:01:41.901Z,4744.00
2022-11-07T08:02:41.683Z,4784.00
2022-11-07T08:04:00.137Z,4424.00
2022-11-07T08:04:42.716Z,4224.00
2022-11-07T08:05:41.686Z,4184.00
2022-11-07T08:06:41.678Z,4048.00
2022-11-07T08:07:41.656Z,4036.00
2022-11-07T08:08:41.629Z,4164.00
2022-11-07T08:09:41.623Z,4316.00
2022-11-07T08:10:43.009Z,4492.00
2022-11-07T08:11:41.597Z,4472.00
2022-11-07T08:12:41.618Z,4540.00
2022-11-07T08:13:41.568Z,4480.00
2022-11-07T08:14:41.593Z,4524.00
2022-11-07T08:15:41.537Z,4548.00
2022-11-07T08:16:42.548Z,4620.00
2022-11-07T08:17:41.521Z,4680.00
2022-11-07T08:18:41.558Z,4688.00
2022-11-07T08:19:41.489Z,4600.00
2022-11-07T08:20:41.493Z,4640.00
2022-11-07T08:21:41.476Z,4732.00
2022-11-07T08:22:41.449Z,4796.00
2022-11-07T08:23:41.478Z,4860.00
2022-11-07T08:24:41.490Z,4976.00
2022-11-07T08:25:41.426Z,5056.00
2022-11-07T08:26:41.535Z,5076.00
2022-11-07T08:27:42.408Z,5348.00
2022-11-07T08:28:41.409Z,5436.00
2022-11-07T08:29:41.391Z,5508.00
2022-11-07T08:30:41.392Z,5520.00
2022-11-07T08:31:41.361Z,5964.00
2022-11-07T08:32:41.332Z,8104.00
2022-11-07T08:33:41.443Z,8012.00
2022-11-07T08:34:41.337Z,7656.00
2022-11-07T08:35:42.642Z,7116.00
2022-11-07T08:36:41.301Z,7612.00
2022-11-07T08:37:41.295Z,7176.00
2022-11-07T08:38:41.301Z,6252.00
2022-11-07T08:39:41.341Z,6144.00
2022-11-07T08:40:41.303Z,6268.00
2022-11-07T08:41:41.302Z,6504.00
2022-11-07T08:42:42.278Z,6572.00
2022-11-07T08:43:41.235Z,6660.00
2022-11-07T08:44:41.254Z,6612.00
2022-11-07T08:45:41.220Z,6440.00
2022-11-07T08:46:41.415Z,6212.00
2022-11-07T08:47:41.229Z,6080.00
2022-11-07T08:48:41.301Z,5652.00
2022-11-07T08:49:41.194Z,5780.00
2022-11-07T08:50:41.340Z,5792.00
2022-11-07T08:51:41.558Z,6348.00
2022-11-07T08:52:41.119Z,6344.00
2022-11-07T08:53:41.156Z,6096.00
2022-11-07T08:54:41.111Z,6480.00
2022-11-07T08:55:41.449Z,7060.00
2022-11-07T08:56:41.110Z,7080.00
2022-11-07T08:57:41.095Z,6512.00
2022-11-07T08:58:41.061Z,6616.00
2022-11-07T08:59:41.040Z,6672.00
2022-11-07T09:00:41.131Z,6436.00
2022-11-07T09:02:14.425Z,6056.00
2022-11-07T09:03:56.441Z,6300.00
2022-11-07T09:04:42.035Z,6196.00
2022-11-07T09:05:40.969Z,6468.00
2022-11-07T09:06:40.963Z,7564.00
2022-11-07T09:07:40.988Z,7012.00
2022-11-07T09:08:41.075Z,7300.00
2022-11-07T09:09:41.009Z,7304.00
2022-11-07T09:10:40.959Z,6848.00
2022-11-07T09:11:40.937Z,6300.00
2022-11-07T09:12:40.881Z,5008.00
2022-11-07T09:13:40.887Z,3996.00
2022-11-07T09:14:40.894Z,3424.00
2022-11-07T09:15:43.764Z,3132.00
2022-11-07T09:16:41.892Z,2940.00
2022-11-07T09:17:40.855Z,2912.00
2022-11-07T09:18:40.871Z,2896.00
2022-11-07T09:19:40.804Z,3176.00
2022-11-07T09:20:40.839Z,3020.00
2022-11-07T09:21:41.113Z,3008.00
2022-11-07T09:22:40.773Z,3308.00
2022-11-07T09:23:41.045Z,3776.00
2022-11-07T09:24:40.767Z,4304.00
2022-11-07T09:25:40.787Z,5336.00
2022-11-07T09:26:40.755Z,5644.00
2022-11-07T09:27:40.734Z,4524.00
2022-11-07T09:28:48.462Z,4940.00
2022-11-07T09:29:41.756Z,4792.00
2022-11-07T09:30:40.718Z,5596.00
2022-11-07T09:31:40.719Z,6960.00
2022-11-07T09:32:45.419Z,8368.00
2022-11-07T09:33:41.692Z,9036.00
2022-11-07T09:34:40.660Z,8236.00
2022-11-07T09:35:40.679Z,9444.00
2022-11-07T09:36:40.661Z,13820.00
2022-11-07T09:37:40.611Z,9376.00
2022-11-07T09:38:40.641Z,7816.00
2022-11-07T09:39:40.615Z,8560.00
2022-11-07T09:40:40.838Z,11248.00
2022-11-07T09:41:40.620Z,9368.00
2022-11-07T09:42:40.549Z,9264.00
2022-11-07T09:43:40.561Z,29280.00
2022-11-07T09:44:40.542Z,22752.00
2022-11-07T09:45:40.539Z,22976.00
2022-11-07T09:46:40.561Z,23904.00
2022-11-07T09:47:40.541Z,23840.00
2022-11-07T09:48:40.470Z,18496.00
2022-11-07T09:49:44.230Z,14280.00
2022-11-07T09:50:40.793Z,15712.00
2022-11-07T09:51:40.455Z,20352.00
2022-11-07T09:52:40.861Z,14088.00
2022-11-07T09:53:40.475Z,17632.00
2022-11-07T09:54:40.403Z,28448.00
2022-11-07T09:55:40.435Z,24704.00
2022-11-07T09:56:40.486Z,21312.00
2022-11-07T09:57:40.397Z,6492.00
2022-11-07T09:58:40.466Z,8796.00
2022-11-07T09:59:40.411Z,8388.00
2022-11-07T10:00:40.401Z,5648.00
2022-11-07T10:01:40.496Z,13412.00
2022-11-07T10:02:40.344Z,11876.00
2022-11-07T10:03:49.128Z,14944.00
2022-11-07T10:04:41.338Z,14360.00
2022-11-07T10:05:41.346Z,11308.00
2022-11-07T10:06:40.285Z,17312.00
2022-11-07T10:07:40.259Z,25696.00
2022-11-07T10:08:40.305Z,19936.00
2022-11-07T10:09:40.298Z,16224.00
2022-11-07T10:10:40.218Z,10524.00
2022-11-07T10:11:40.228Z,9372.00
2022-11-07T10:12:44.330Z,14140.00
2022-11-07T10:13:40.209Z,12468.00
2022-11-07T10:14:40.285Z,14640.00
2022-11-07T10:15:40.211Z,12804.00
2022-11-07T10:16:40.511Z,11580.00
2022-11-07T10:17:40.168Z,12084.00
2022-11-07T10:18:40.152Z,11176.00
2022-11-07T10:19:40.171Z,11652.00
2022-11-07T10:20:50.069Z,12040.00
2022-11-07T10:21:41.120Z,12864.00
2022-11-07T10:22:40.110Z,13816.00
2022-11-07T10:23:40.163Z,17664.00
2022-11-07T10:24:40.070Z,17824.00
2022-11-07T10:25:40.102Z,13108.00
2022-11-07T10:26:40.132Z,14104.00
2022-11-07T10:27:40.051Z,13320.00
2022-11-07T10:28:40.080Z,12412.00
2022-11-07T10:29:44.375Z,12284.00
2022-11-07T10:30:40.281Z,12468.00
2022-11-07T10:31:40.003Z,11604.00
2022-11-07T10:32:40.007Z,13632.00
2022-11-07T10:33:39.998Z,11096.00
2022-11-07T10:34:39.992Z,10952.00
2022-11-07T10:35:39.958Z,11276.00
2022-11-07T10:36:39.945Z,11952.00
2022-11-07T10:37:40.203Z,12236.00
2022-11-07T10:38:39.948Z,12380.00
2022-11-07T10:39:39.915Z,12268.00
2022-11-07T10:40:39.909Z,12012.00
2022-11-07T10:41:39.970Z,11912.00
2022-11-07T10:42:39.931Z,11740.00
2022-11-07T10:43:39.890Z,11320.00
2022-11-07T10:44:39.903Z,11008.00
2022-11-07T10:45:39.849Z,10468.00
2022-11-07T10:46:39.837Z,9728.00
2022-11-07T10:47:39.816Z,8888.00
2022-11-07T10:48:39.837Z,8252.00
2022-11-07T10:49:40.151Z,8568.00
2022-11-07T10:50:39.858Z,8684.00
2022-11-07T10:51:39.759Z,8924.00
2022-11-07T10:52:39.793Z,9424.00
2022-11-07T10:53:39.770Z,9240.00
2022-11-07T10:54:39.904Z,8796.00
2022-11-07T10:55:39.794Z,8452.00
2022-11-07T10:56:39.745Z,9072.00
2022-11-07T10:57:39.715Z,8716.00
2022-11-07T10:58:39.749Z,8232.00
2022-11-07T10:59:39.741Z,7900.00
2022-11-07T11:00:39.789Z,7952.00
2022-11-07T11:01:39.801Z,8540.00
2022-11-07T11:02:39.699Z,8788.00
2022-11-07T11:03:44.770Z,7400.00
2022-11-07T11:04:40.795Z,6200.00
2022-11-07T11:05:39.650Z,5708.00
2022-11-07T11:06:39.615Z,5508.00
2022-11-07T11:07:39.607Z,4948.00
2022-11-07T11:08:39.741Z,5288.00
2022-11-07T11:09:39.856Z,5916.00
2022-11-07T11:10:39.571Z,6388.00
2022-11-07T11:11:39.915Z,6532.00
2022-11-07T11:12:39.517Z,7900.00
2022-11-07T11:13:39.516Z,9012.00
2022-11-07T11:14:39.621Z,9724.00
2022-11-07T11:15:39.490Z,10748.00
2022-11-07T11:16:39.548Z,10688.00
2022-11-07T11:17:40.899Z,11028.00
2022-11-07T11:18:40.485Z,10616.00
2022-11-07T11:19:40.075Z,10876.00
2022-11-07T11:20:40.326Z,11772.00
2022-11-07T11:21:39.438Z,11312.00
2022-11-07T11:22:42.572Z,11172.00
2022-11-07T11:23:39.428Z,11288.00
2022-11-07T11:24:39.381Z,11508.00
2022-11-07T11:25:39.844Z,11536.00
2022-11-07T11:26:39.463Z,11460.00
2022-11-07T11:27:40.291Z,11152.00
2022-11-07T11:28:40.115Z,11212.00
2022-11-07T11:29:39.878Z,11072.00
2022-11-07T11:30:39.345Z,10932.00
2022-11-07T11:31:39.334Z,10728.00
2022-11-07T11:32:39.345Z,10520.00
2022-11-07T11:33:39.864Z,10496.00
2022-11-07T11:34:39.280Z,10364.00
2022-11-07T11:35:42.179Z,9976.00
2022-11-07T11:36:39.274Z,9716.00
2022-11-07T11:37:39.329Z,9236.00
2022-11-07T11:38:40.019Z,8792.00
2022-11-07T11:39:39.305Z,8420.00
2022-11-07T11:40:39.205Z,8108.00
2022-11-07T11:41:39.268Z,7832.00
2022-11-07T11:42:39.230Z,7600.00
2022-11-07T11:43:39.196Z,7448.00
2022-11-07T11:44:39.199Z,7332.00
2022-11-07T11:45:39.197Z,7616.00
2022-11-07T11:46:39.431Z,7920.00
2022-11-07T11:47:39.280Z,8012.00
2022-11-07T11:48:39.209Z,7920.00
2022-11-07T11:49:39.141Z,7924.00
2022-11-07T11:50:42.150Z,8000.00
2022-11-07T11:51:39.111Z,8152.00
2022-11-07T11:52:39.118Z,8224.00
2022-11-07T11:53:39.088Z,8304.00
2022-11-07T11:54:39.077Z,8256.00
2022-11-07T11:55:39.153Z,8048.00
2022-11-07T11:56:39.168Z,7752.00
2022-11-07T11:57:39.032Z,7484.00
2022-11-07T11:58:39.023Z,7364.00
2022-11-07T11:59:39.044Z,7296.00
2022-11-07T12:00:39.005Z,7348.00
2022-11-07T12:01:39.089Z,8008.00
2022-11-07T12:02:38.982Z,9056.00
2022-11-07T12:03:38.972Z,10808.00
2022-11-07T12:04:38.979Z,10256.00
2022-11-07T12:05:38.956Z,10396.00
2022-11-07T12:06:39.934Z,10600.00
2022-11-07T12:07:38.907Z,9596.00
2022-11-07T12:08:38.924Z,8956.00
2022-11-07T12:09:38.883Z,8716.00
2022-11-07T12:10:38.921Z,8164.00
2022-11-07T12:11:38.856Z,7396.00
2022-11-07T12:12:38.867Z,6380.00
2022-11-07T12:13:38.873Z,5920.00
2022-11-07T12:14:38.835Z,5396.00
2022-11-07T12:15:38.837Z,4916.00
2022-11-07T12:16:38.827Z,4648.00
2022-11-07T12:17:38.814Z,4836.00
2022-11-07T12:18:38.809Z,4404.00
2022-11-07T12:19:38.820Z,4124.00
2022-11-07T12:20:38.780Z,4000.00
2022-11-07T12:21:38.780Z,3844.00
2022-11-07T12:22:38.749Z,3660.00
2022-11-07T12:23:38.762Z,3688.00
2022-11-07T12:24:38.711Z,3756.00
2022-11-07T12:25:38.697Z,3808.00
2022-11-07T12:26:38.751Z,3900.00
2022-11-07T12:27:38.688Z,3876.00
2022-11-07T12:28:38.704Z,3780.00
2022-11-07T12:29:38.684Z,3656.00
2022-11-07T12:30:38.652Z,3656.00
2022-11-07T12:31:38.894Z,3816.00
2022-11-07T12:32:38.644Z,3988.00
2022-11-07T12:33:38.633Z,4104.00
2022-11-07T12:34:38.614Z,4316.00
2022-11-07T12:35:38.586Z,4680.00
2022-11-07T12:36:38.611Z,5072.00
2022-11-07T12:37:38.585Z,5416.00
2022-11-07T12:38:38.575Z,5608.00